sensor_id;sensor_type;location;lat;lon;timestamp;temperature;humidity
65770;DHT22;52512;47.650;8.578;2022-09-29T00:00:37;10.10;99.90
65770;DHT22;52512;47.650;8.578;2022-09-29T00:03:03;10.10;99.90
65770;DHT22;52512;47.650;8.578;2022-09-29T00:05:29;10.10;99.90
65770;DHT22;52512;47.650;8.578;2022-09-29T00:07:55;10.10;99.90
65770;DHT22;52512;47.650;8.578;2022-09-29T00:10:21;10.10;99.90
65770;DHT22;52512;47.650;8.578;2022-09-29T00:12:47;10.10;99.90
65770;DHT22;52512;47.650;8.578;2022-09-29T00:15:12;10.10;99.90
65770;DHT22;52512;47.650;8.578;2022-09-29T00:17:38;10.10;99.90
65770;DHT22;52512;47.650;8.578;2022-09-29T00:20:05;10.10;99.90
65770;DHT22;52512;47.650;8.578;2022-09-29T00:22:31;10.10;99.90
65770;DHT22;52512;47.650;8.578;2022-09-29T00:24:57;10.10;99.90
65770;DHT22;52512;47.650;8.578;2022-09-29T00:27:22;10.10;99.90
65770;DHT22;52512;47.650;8.578;2022-09-29T00:29:48;10.10;99.90
65770;DHT22;52512;47.650;8.578;2022-09-29T00:32:14;10.10;99.90
65770;DHT22;52512;47.650;8.578;2022-09-29T00:34:40;10.10;99.90
65770;DHT22;52512;47.650;8.578;2022-09-29T00:37:05;10.10;99.90
65770;DHT22;52512;47.650;8.578;2022-09-29T00:39:31;10.10;99.90
65770;DHT22;52512;47.650;8.578;2022-09-29T00:41:57;10.10;99.90
65770;DHT22;52512;47.650;8.578;2022-09-29T00:47:11;10.10;99.90
65770;DHT22;52512;47.650;8.578;2022-09-29T00:49:46;10.10;99.90
65770;DHT22;52512;47.650;8.578;2022-09-29T00:52:31;10.10;99.90
65770;DHT22;52512;47.650;8.578;2022-09-29T00:55:19;10.10;99.90
65770;DHT22;52512;47.650;8.578;2022-09-29T00:58:04;10.10;99.90
65770;DHT22;52512;47.650;8.578;2022-09-29T01:00:31;10.10;99.90
65770;DHT22;52512;47.650;8.578;2022-09-29T01:03:04;10.10;99.90
65770;DHT22;52512;47.650;8.578;2022-09-29T01:05:35;10.10;99.90
65770;DHT22;52512;47.650;8.578;2022-09-29T01:08:11;10.00;99.90
65770;DHT22;52512;47.650;8.578;2022-09-29T01:10:40;10.10;99.90
65770;DHT22;52512;47.650;8.578;2022-09-29T01:13:07;10.10;99.90
65770;DHT22;52512;47.650;8.578;2022-09-29T01:15:32;10.00;99.90
65770;DHT22;52512;47.650;8.578;2022-09-29T01:17:58;10.10;99.90
65770;DHT22;52512;47.650;8.578;2022-09-29T01:20:24;10.10;99.90
65770;DHT22;52512;47.650;8.578;2022-09-29T01:24:00;10.10;99.90
65770;DHT22;52512;47.650;8.578;2022-09-29T01:29:18;10.00;99.90
65770;DHT22;52512;47.650;8.578;2022-09-29T01:32:18;10.10;99.90
65770;DHT22;52512;47.650;8.578;2022-09-29T01:35:15;10.00;99.90
65770;DHT22;52512;47.650;8.578;2022-09-29T01:41:09;10.00;99.90
65770;DHT22;52512;47.650;8.578;2022-09-29T01:43:47;10.00;99.90
65770;DHT22;52512;47.650;8.578;2022-09-29T01:46:24;10.00;99.90
65770;DHT22;52512;47.650;8.578;2022-09-29T01:48:54;10.00;99.90
65770;DHT22;52512;47.650;8.578;2022-09-29T01:51:27;10.00;99.90
65770;DHT22;52512;47.650;8.578;2022-09-29T01:53:58;10.00;99.90
65770;DHT22;52512;47.650;8.578;2022-09-29T01:56:37;10.00;99.90
65770;DHT22;52512;47.650;8.578;2022-09-29T01:59:16;10.00;99.90
65770;DHT22;52512;47.650;8.578;2022-09-29T02:01:46;10.00;99.90
65770;DHT22;52512;47.650;8.578;2022-09-29T02:04:36;10.00;99.90
65770;DHT22;52512;47.650;8.578;2022-09-29T02:07:10;10.00;99.90
65770;DHT22;52512;47.650;8.578;2022-09-29T02:09:41;10.00;99.90
65770;DHT22;52512;47.650;8.578;2022-09-29T02:12:12;10.00;99.90
65770;DHT22;52512;47.650;8.578;2022-09-29T02:14:42;10.00;99.90
65770;DHT22;52512;47.650;8.578;2022-09-29T02:17:19;10.00;99.90
65770;DHT22;52512;47.650;8.578;2022-09-29T02:19:47;10.00;99.90
65770;DHT22;52512;47.650;8.578;2022-09-29T02:22:14;10.00;99.90
65770;DHT22;52512;47.650;8.578;2022-09-29T02:24:40;10.00;99.90
65770;DHT22;52512;47.650;8.578;2022-09-29T02:27:07;10.00;99.90
65770;DHT22;52512;47.650;8.578;2022-09-29T02:29:34;10.00;99.90
65770;DHT22;52512;47.650;8.578;2022-09-29T02:32:01;10.00;99.90
65770;DHT22;52512;47.650;8.578;2022-09-29T02:34:33;10.00;99.90
65770;DHT22;52512;47.650;8.578;2022-09-29T02:42:10;10.00;99.90
65770;DHT22;52512;47.650;8.578;2022-09-29T02:44:54;9.90;99.90
65770;DHT22;52512;47.650;8.578;2022-09-29T02:47:56;9.90;99.90
65770;DHT22;52512;47.650;8.578;2022-09-29T02:50:50;9.90;99.90
65770;DHT22;52512;47.650;8.578;2022-09-29T02:58:46;9.90;99.90
65770;DHT22;52512;47.650;8.578;2022-09-29T03:01:14;9.90;99.90
65770;DHT22;52512;47.650;8.578;2022-09-29T03:03:41;9.90;99.90
65770;DHT22;52512;47.650;8.578;2022-09-29T03:06:08;9.90;99.90
65770;DHT22;52512;47.650;8.578;2022-09-29T03:08:34;9.90;99.90
65770;DHT22;52512;47.650;8.578;2022-09-29T03:10:59;9.90;99.90
65770;DHT22;52512;47.650;8.578;2022-09-29T03:13:25;9.90;99.90
65770;DHT22;52512;47.650;8.578;2022-09-29T03:15:51;9.90;99.90
65770;DHT22;52512;47.650;8.578;2022-09-29T03:18:17;9.90;99.90
65770;DHT22;52512;47.650;8.578;2022-09-29T03:20:42;9.90;99.90
65770;DHT22;52512;47.650;8.578;2022-09-29T03:23:08;9.90;99.90
65770;DHT22;52512;47.650;8.578;2022-09-29T03:25:33;9.90;99.90
65770;DHT22;52512;47.650;8.578;2022-09-29T03:27:59;9.90;99.90
65770;DHT22;52512;47.650;8.578;2022-09-29T03:30:25;9.90;99.90
65770;DHT22;52512;47.650;8.578;2022-09-29T03:32:50;9.90;99.90
65770;DHT22;52512;47.650;8.578;2022-09-29T03:35:16;9.90;99.90
65770;DHT22;52512;47.650;8.578;2022-09-29T03:37:42;10.00;99.90
65770;DHT22;52512;47.650;8.578;2022-09-29T03:40:08;10.00;99.90
65770;DHT22;52512;47.650;8.578;2022-09-29T03:42:34;9.90;99.90
65770;DHT22;52512;47.650;8.578;2022-09-29T03:44:59;9.90;99.90
65770;DHT22;52512;47.650;8.578;2022-09-29T03:47:25;9.90;99.90
65770;DHT22;52512;47.650;8.578;2022-09-29T03:49:51;9.90;99.90
65770;DHT22;52512;47.650;8.578;2022-09-29T03:52:16;9.90;99.90
65770;DHT22;52512;47.650;8.578;2022-09-29T03:54:42;9.90;99.90
65770;DHT22;52512;47.650;8.578;2022-09-29T03:57:07;9.90;99.90
65770;DHT22;52512;47.650;8.578;2022-09-29T03:59:33;9.90;99.90
65770;DHT22;52512;47.650;8.578;2022-09-29T04:01:59;9.90;99.90
65770;DHT22;52512;47.650;8.578;2022-09-29T04:04:25;9.90;99.90
65770;DHT22;52512;47.650;8.578;2022-09-29T04:06:50;9.80;99.90
65770;DHT22;52512;47.650;8.578;2022-09-29T04:09:16;9.90;99.90
65770;DHT22;52512;47.650;8.578;2022-09-29T04:11:42;9.90;99.90
65770;DHT22;52512;47.650;8.578;2022-09-29T04:14:07;9.90;99.90
65770;DHT22;52512;47.650;8.578;2022-09-29T04:16:33;9.80;99.90
65770;DHT22;52512;47.650;8.578;2022-09-29T04:18:58;9.80;99.90
65770;DHT22;52512;47.650;8.578;2022-09-29T04:21:24;9.80;99.90
65770;DHT22;52512;47.650;8.578;2022-09-29T04:23:50;9.80;99.90
65770;DHT22;52512;47.650;8.578;2022-09-29T04:26:15;9.80;99.90
65770;DHT22;52512;47.650;8.578;2022-09-29T04:28:41;9.80;99.90
65770;DHT22;52512;47.650;8.578;2022-09-29T04:31:07;9.80;99.90
65770;DHT22;52512;47.650;8.578;2022-09-29T04:33:33;9.90;99.90
65770;DHT22;52512;47.650;8.578;2022-09-29T04:35:59;9.80;99.90
65770;DHT22;52512;47.650;8.578;2022-09-29T04:38:25;9.80;99.90
65770;DHT22;52512;47.650;8.578;2022-09-29T04:40:51;9.80;99.90
65770;DHT22;52512;47.650;8.578;2022-09-29T04:43:17;9.90;99.90
65770;DHT22;52512;47.650;8.578;2022-09-29T04:45:43;9.90;99.90
65770;DHT22;52512;47.650;8.578;2022-09-29T04:48:08;9.80;99.90
65770;DHT22;52512;47.650;8.578;2022-09-29T04:50:34;9.80;99.90
65770;DHT22;52512;47.650;8.578;2022-09-29T04:53:00;9.80;99.90
65770;DHT22;52512;47.650;8.578;2022-09-29T04:55:26;9.80;99.90
65770;DHT22;52512;47.650;8.578;2022-09-29T04:57:52;9.80;99.90
65770;DHT22;52512;47.650;8.578;2022-09-29T05:00:18;9.80;99.90
65770;DHT22;52512;47.650;8.578;2022-09-29T05:02:44;9.80;99.90
65770;DHT22;52512;47.650;8.578;2022-09-29T05:05:10;9.80;99.90
65770;DHT22;52512;47.650;8.578;2022-09-29T05:07:37;9.80;99.90
65770;DHT22;52512;47.650;8.578;2022-09-29T05:10:04;9.80;99.90
65770;DHT22;52512;47.650;8.578;2022-09-29T05:12:30;9.70;99.90
65770;DHT22;52512;47.650;8.578;2022-09-29T05:14:56;9.80;99.90
65770;DHT22;52512;47.650;8.578;2022-09-29T05:17:22;9.70;99.90
65770;DHT22;52512;47.650;8.578;2022-09-29T05:19:48;9.80;99.90
65770;DHT22;52512;47.650;8.578;2022-09-29T05:22:13;9.80;99.90
65770;DHT22;52512;47.650;8.578;2022-09-29T05:24:39;9.70;99.90
65770;DHT22;52512;47.650;8.578;2022-09-29T05:27:04;9.70;99.90
65770;DHT22;52512;47.650;8.578;2022-09-29T05:29:30;9.70;99.90
65770;DHT22;52512;47.650;8.578;2022-09-29T05:31:56;9.70;99.90
65770;DHT22;52512;47.650;8.578;2022-09-29T05:34:21;9.70;99.90
65770;DHT22;52512;47.650;8.578;2022-09-29T05:36:47;9.70;99.90
65770;DHT22;52512;47.650;8.578;2022-09-29T05:39:13;9.70;99.90
65770;DHT22;52512;47.650;8.578;2022-09-29T05:41:38;9.70;99.90
65770;DHT22;52512;47.650;8.578;2022-09-29T05:44:04;9.70;99.90
65770;DHT22;52512;47.650;8.578;2022-09-29T05:46:30;9.70;99.90
65770;DHT22;52512;47.650;8.578;2022-09-29T05:48:56;9.70;99.90
65770;DHT22;52512;47.650;8.578;2022-09-29T05:51:26;9.70;99.90
65770;DHT22;52512;47.650;8.578;2022-09-29T05:53:52;9.70;99.90
65770;DHT22;52512;47.650;8.578;2022-09-29T05:56:20;9.70;99.90
65770;DHT22;52512;47.650;8.578;2022-09-29T05:58:47;9.70;99.90
65770;DHT22;52512;47.650;8.578;2022-09-29T06:01:18;9.70;99.90
65770;DHT22;52512;47.650;8.578;2022-09-29T06:03:44;9.70;99.90
65770;DHT22;52512;47.650;8.578;2022-09-29T06:06:15;9.70;99.90
65770;DHT22;52512;47.650;8.578;2022-09-29T06:08:42;9.70;99.90
65770;DHT22;52512;47.650;8.578;2022-09-29T06:13:39;9.70;99.90
65770;DHT22;52512;47.650;8.578;2022-09-29T06:16:05;9.70;99.90
65770;DHT22;52512;47.650;8.578;2022-09-29T06:18:31;9.70;99.90
65770;DHT22;52512;47.650;8.578;2022-09-29T06:21:14;9.70;99.90
65770;DHT22;52512;47.650;8.578;2022-09-29T06:23:40;9.70;99.90
65770;DHT22;52512;47.650;8.578;2022-09-29T06:26:11;9.70;99.90
65770;DHT22;52512;47.650;8.578;2022-09-29T06:28:37;9.70;99.90
65770;DHT22;52512;47.650;8.578;2022-09-29T06:31:17;9.70;99.90
65770;DHT22;52512;47.650;8.578;2022-09-29T06:33:44;9.70;99.90
65770;DHT22;52512;47.650;8.578;2022-09-29T06:38:58;9.70;99.90
65770;DHT22;52512;47.650;8.578;2022-09-29T06:41:24;9.70;99.90
65770;DHT22;52512;47.650;8.578;2022-09-29T06:43:51;9.80;99.90
65770;DHT22;52512;47.650;8.578;2022-09-29T06:46:17;9.70;99.90
65770;DHT22;52512;47.650;8.578;2022-09-29T06:48:44;9.70;99.90
65770;DHT22;52512;47.650;8.578;2022-09-29T06:51:09;9.70;99.90
65770;DHT22;52512;47.650;8.578;2022-09-29T06:53:35;9.80;99.90
65770;DHT22;52512;47.650;8.578;2022-09-29T06:56:01;9.70;99.90
65770;DHT22;52512;47.650;8.578;2022-09-29T06:58:27;9.80;99.90
65770;DHT22;52512;47.650;8.578;2022-09-29T07:00:53;9.80;99.90
65770;DHT22;52512;47.650;8.578;2022-09-29T07:03:20;9.80;99.90
65770;DHT22;52512;47.650;8.578;2022-09-29T07:05:46;9.80;99.90
65770;DHT22;52512;47.650;8.578;2022-09-29T07:08:11;9.80;99.90
65770;DHT22;52512;47.650;8.578;2022-09-29T07:10:37;9.80;99.90
65770;DHT22;52512;47.650;8.578;2022-09-29T07:13:03;9.80;99.90
65770;DHT22;52512;47.650;8.578;2022-09-29T07:15:30;9.80;99.90
65770;DHT22;52512;47.650;8.578;2022-09-29T07:17:59;9.80;99.90
65770;DHT22;52512;47.650;8.578;2022-09-29T07:20:27;9.80;99.90
65770;DHT22;52512;47.650;8.578;2022-09-29T07:22:53;9.80;99.90
65770;DHT22;52512;47.650;8.578;2022-09-29T07:25:20;9.90;99.90
65770;DHT22;52512;47.650;8.578;2022-09-29T07:27:46;9.90;99.90
65770;DHT22;52512;47.650;8.578;2022-09-29T07:30:12;9.90;99.90
65770;DHT22;52512;47.650;8.578;2022-09-29T07:32:38;9.90;99.90
65770;DHT22;52512;47.650;8.578;2022-09-29T07:35:04;9.90;99.90
65770;DHT22;52512;47.650;8.578;2022-09-29T07:37:30;9.90;99.90
65770;DHT22;52512;47.650;8.578;2022-09-29T07:39:56;9.90;99.90
65770;DHT22;52512;47.650;8.578;2022-09-29T07:42:21;9.90;99.90
65770;DHT22;52512;47.650;8.578;2022-09-29T07:44:47;9.90;99.90
65770;DHT22;52512;47.650;8.578;2022-09-29T07:47:13;9.90;99.90
65770;DHT22;52512;47.650;8.578;2022-09-29T07:49:40;9.90;99.90
65770;DHT22;52512;47.650;8.578;2022-09-29T07:52:05;10.00;99.90
65770;DHT22;52512;47.650;8.578;2022-09-29T07:54:31;10.00;99.90
65770;DHT22;52512;47.650;8.578;2022-09-29T07:56:57;10.00;99.90
65770;DHT22;52512;47.650;8.578;2022-09-29T07:59:26;10.00;99.90
65770;DHT22;52512;47.650;8.578;2022-09-29T08:01:51;10.00;99.90
65770;DHT22;52512;47.650;8.578;2022-09-29T08:04:18;10.00;99.90
65770;DHT22;52512;47.650;8.578;2022-09-29T08:06:44;10.00;99.90
65770;DHT22;52512;47.650;8.578;2022-09-29T08:09:11;10.00;99.90
65770;DHT22;52512;47.650;8.578;2022-09-29T08:11:38;10.00;99.90
65770;DHT22;52512;47.650;8.578;2022-09-29T08:14:05;10.10;99.90
65770;DHT22;52512;47.650;8.578;2022-09-29T08:16:31;10.10;99.90
65770;DHT22;52512;47.650;8.578;2022-09-29T08:18:58;10.10;99.90
65770;DHT22;52512;47.650;8.578;2022-09-29T08:21:24;10.10;99.90
65770;DHT22;52512;47.650;8.578;2022-09-29T08:23:49;10.10;99.90
65770;DHT22;52512;47.650;8.578;2022-09-29T08:26:18;10.20;99.90
65770;DHT22;52512;47.650;8.578;2022-09-29T08:28:45;10.20;99.90
65770;DHT22;52512;47.650;8.578;2022-09-29T08:31:12;10.20;99.90
65770;DHT22;52512;47.650;8.578;2022-09-29T08:33:39;10.20;99.90
65770;DHT22;52512;47.650;8.578;2022-09-29T08:36:06;10.20;99.90
65770;DHT22;52512;47.650;8.578;2022-09-29T08:38:39;10.30;99.90
65770;DHT22;52512;47.650;8.578;2022-09-29T08:41:24;10.30;99.90
65770;DHT22;52512;47.650;8.578;2022-09-29T08:46:52;10.30;99.90
65770;DHT22;52512;47.650;8.578;2022-09-29T08:49:24;10.30;99.90
65770;DHT22;52512;47.650;8.578;2022-09-29T08:51:55;10.40;99.90
65770;DHT22;52512;47.650;8.578;2022-09-29T08:54:42;10.40;99.90
65770;DHT22;52512;47.650;8.578;2022-09-29T08:57:12;10.40;99.90
65770;DHT22;52512;47.650;8.578;2022-09-29T08:59:52;10.40;99.90
65770;DHT22;52512;47.650;8.578;2022-09-29T09:02:42;10.40;99.90
65770;DHT22;52512;47.650;8.578;2022-09-29T09:11:06;10.50;99.90
65770;DHT22;52512;47.650;8.578;2022-09-29T09:25:16;10.60;99.90
65770;DHT22;52512;47.650;8.578;2022-09-29T09:27:48;10.60;99.90
65770;DHT22;52512;47.650;8.578;2022-09-29T09:30:18;10.70;99.90
65770;DHT22;52512;47.650;8.578;2022-09-29T09:32:55;10.70;99.90
65770;DHT22;52512;47.650;8.578;2022-09-29T09:37:58;10.80;99.90
65770;DHT22;52512;47.650;8.578;2022-09-29T09:40:26;10.80;99.90
65770;DHT22;52512;47.650;8.578;2022-09-29T09:43:09;10.80;99.90
65770;DHT22;52512;47.650;8.578;2022-09-29T09:48:25;10.80;99.90
65770;DHT22;52512;47.650;8.578;2022-09-29T09:50:54;10.80;99.90
65770;DHT22;52512;47.650;8.578;2022-09-29T09:59:14;10.90;99.90
65770;DHT22;52512;47.650;8.578;2022-09-29T10:01:42;11.00;99.90
65770;DHT22;52512;47.650;8.578;2022-09-29T10:04:11;11.00;99.90
65770;DHT22;52512;47.650;8.578;2022-09-29T10:06:37;11.00;99.90
65770;DHT22;52512;47.650;8.578;2022-09-29T10:09:03;10.90;99.90
65770;DHT22;52512;47.650;8.578;2022-09-29T10:11:30;11.10;99.90
65770;DHT22;52512;47.650;8.578;2022-09-29T10:14:23;11.10;99.90
65770;DHT22;52512;47.650;8.578;2022-09-29T10:17:17;11.20;99.90
65770;DHT22;52512;47.650;8.578;2022-09-29T10:22:22;11.30;99.90
65770;DHT22;52512;47.650;8.578;2022-09-29T10:24:47;11.40;99.90
65770;DHT22;52512;47.650;8.578;2022-09-29T10:27:21;11.40;99.90
65770;DHT22;52512;47.650;8.578;2022-09-29T10:29:50;11.50;99.90
65770;DHT22;52512;47.650;8.578;2022-09-29T10:34:48;11.60;99.90
65770;DHT22;52512;47.650;8.578;2022-09-29T10:37:35;11.60;99.90
65770;DHT22;52512;47.650;8.578;2022-09-29T10:42:42;11.70;99.90
65770;DHT22;52512;47.650;8.578;2022-09-29T10:45:23;11.70;99.90
65770;DHT22;52512;47.650;8.578;2022-09-29T10:50:30;11.80;99.90
65770;DHT22;52512;47.650;8.578;2022-09-29T10:53:16;11.90;99.90
65770;DHT22;52512;47.650;8.578;2022-09-29T10:55:49;12.00;99.90
65770;DHT22;52512;47.650;8.578;2022-09-29T10:58:39;12.00;99.90
65770;DHT22;52512;47.650;8.578;2022-09-29T11:01:09;12.10;99.90
65770;DHT22;52512;47.650;8.578;2022-09-29T11:03:38;12.10;99.90
65770;DHT22;52512;47.650;8.578;2022-09-29T11:06:10;12.20;99.90
65770;DHT22;52512;47.650;8.578;2022-09-29T11:08:55;12.20;99.90
65770;DHT22;52512;47.650;8.578;2022-09-29T11:11:25;12.20;99.90
65770;DHT22;52512;47.650;8.578;2022-09-29T11:13:52;12.30;99.90
65770;DHT22;52512;47.650;8.578;2022-09-29T11:18:50;12.50;99.90
65770;DHT22;52512;47.650;8.578;2022-09-29T11:24:00;12.60;99.90
65770;DHT22;52512;47.650;8.578;2022-09-29T11:26:35;12.70;99.90
65770;DHT22;52512;47.650;8.578;2022-09-29T11:31:58;12.80;99.90
65770;DHT22;52512;47.650;8.578;2022-09-29T11:34:51;12.90;99.90
65770;DHT22;52512;47.650;8.578;2022-09-29T11:53:43;13.10;99.90
65770;DHT22;52512;47.650;8.578;2022-09-29T12:01:38;13.20;99.90
65770;DHT22;52512;47.650;8.578;2022-09-29T12:04:42;13.20;99.90
65770;DHT22;52512;47.650;8.578;2022-09-29T12:07:33;13.30;99.90
65770;DHT22;52512;47.650;8.578;2022-09-29T12:10:42;13.30;99.90
65770;DHT22;52512;47.650;8.578;2022-09-29T12:13:34;13.30;99.90
65770;DHT22;52512;47.650;8.578;2022-09-29T12:16:06;13.30;99.90
65770;DHT22;52512;47.650;8.578;2022-09-29T12:21:40;13.40;99.90
65770;DHT22;52512;47.650;8.578;2022-09-29T12:24:13;13.40;99.90
65770;DHT22;52512;47.650;8.578;2022-09-29T12:26:41;13.40;99.90
65770;DHT22;52512;47.650;8.578;2022-09-29T12:29:28;13.50;99.90
65770;DHT22;52512;47.650;8.578;2022-09-29T12:31:58;13.50;99.90
65770;DHT22;52512;47.650;8.578;2022-09-29T12:34:53;13.60;99.90
65770;DHT22;52512;47.650;8.578;2022-09-29T12:37:30;13.60;99.90
65770;DHT22;52512;47.650;8.578;2022-09-29T12:40:11;13.60;99.90
65770;DHT22;52512;47.650;8.578;2022-09-29T12:43:20;13.60;99.90
65770;DHT22;52512;47.650;8.578;2022-09-29T12:46:02;13.70;99.90
65770;DHT22;52512;47.650;8.578;2022-09-29T12:49:20;13.70;99.90
65770;DHT22;52512;47.650;8.578;2022-09-29T12:51:48;13.70;99.90
65770;DHT22;52512;47.650;8.578;2022-09-29T12:57:52;13.80;99.90
65770;DHT22;52512;47.650;8.578;2022-09-29T13:10:34;13.80;99.90
65770;DHT22;52512;47.650;8.578;2022-09-29T13:13:29;13.80;99.90
65770;DHT22;52512;47.650;8.578;2022-09-29T13:21:51;13.80;99.90
65770;DHT22;52512;47.650;8.578;2022-09-29T13:27:30;13.80;99.90
65770;DHT22;52512;47.650;8.578;2022-09-29T13:30:02;13.80;99.90
65770;DHT22;52512;47.650;8.578;2022-09-29T13:32:30;13.80;99.90
65770;DHT22;52512;47.650;8.578;2022-09-29T13:34:59;13.80;99.90
65770;DHT22;52512;47.650;8.578;2022-09-29T13:37:31;13.80;99.90
65770;DHT22;52512;47.650;8.578;2022-09-29T13:40:00;13.80;99.90
65770;DHT22;52512;47.650;8.578;2022-09-29T13:42:40;13.80;99.90
65770;DHT22;52512;47.650;8.578;2022-09-29T13:45:35;13.80;99.90
65770;DHT22;52512;47.650;8.578;2022-09-29T13:49:00;13.80;99.90
65770;DHT22;52512;47.650;8.578;2022-09-29T13:51:41;13.80;99.90
65770;DHT22;52512;47.650;8.578;2022-09-29T13:54:33;13.90;99.90
65770;DHT22;52512;47.650;8.578;2022-09-29T13:59:38;13.80;99.90
65770;DHT22;52512;47.650;8.578;2022-09-29T14:02:37;13.80;99.90
65770;DHT22;52512;47.650;8.578;2022-09-29T14:15:42;13.80;99.90
65770;DHT22;52512;47.650;8.578;2022-09-29T14:18:33;13.80;99.90
65770;DHT22;52512;47.650;8.578;2022-09-29T14:21:03;13.80;99.90
65770;DHT22;52512;47.650;8.578;2022-09-29T14:23:48;13.80;99.90
65770;DHT22;52512;47.650;8.578;2022-09-29T14:26:51;13.80;99.90
65770;DHT22;52512;47.650;8.578;2022-09-29T14:29:26;13.70;99.90
65770;DHT22;52512;47.650;8.578;2022-09-29T14:31:57;13.70;99.90
65770;DHT22;52512;47.650;8.578;2022-09-29T14:34:28;13.70;99.90
65770;DHT22;52512;47.650;8.578;2022-09-29T14:36:57;13.70;99.90
65770;DHT22;52512;47.650;8.578;2022-09-29T14:39:23;13.70;99.90
65770;DHT22;52512;47.650;8.578;2022-09-29T14:41:50;13.70;99.90
65770;DHT22;52512;47.650;8.578;2022-09-29T14:44:28;13.70;99.90
65770;DHT22;52512;47.650;8.578;2022-09-29T14:47:45;13.70;99.90
65770;DHT22;52512;47.650;8.578;2022-09-29T14:50:47;13.70;99.90
65770;DHT22;52512;47.650;8.578;2022-09-29T14:53:53;13.60;99.90
65770;DHT22;52512;47.650;8.578;2022-09-29T15:02:08;13.60;99.90
65770;DHT22;52512;47.650;8.578;2022-09-29T15:04:41;13.60;99.90
65770;DHT22;52512;47.650;8.578;2022-09-29T15:07:13;13.50;99.90
65770;DHT22;52512;47.650;8.578;2022-09-29T15:09:44;13.50;99.90
65770;DHT22;52512;47.650;8.578;2022-09-29T15:12:23;13.50;99.90
65770;DHT22;52512;47.650;8.578;2022-09-29T15:14:51;13.50;99.90
65770;DHT22;52512;47.650;8.578;2022-09-29T15:20:45;13.50;99.90
65770;DHT22;52512;47.650;8.578;2022-09-29T15:26:00;13.50;99.90
65770;DHT22;52512;47.650;8.578;2022-09-29T15:28:32;13.40;99.90
65770;DHT22;52512;47.650;8.578;2022-09-29T15:31:02;13.40;99.90
65770;DHT22;52512;47.650;8.578;2022-09-29T15:33:30;13.40;99.90
65770;DHT22;52512;47.650;8.578;2022-09-29T15:36:28;13.40;99.90
65770;DHT22;52512;47.650;8.578;2022-09-29T15:42:18;13.30;99.90
65770;DHT22;52512;47.650;8.578;2022-09-29T15:44:51;13.30;99.90
65770;DHT22;52512;47.650;8.578;2022-09-29T15:47:39;13.30;99.90
65770;DHT22;52512;47.650;8.578;2022-09-29T15:50:22;13.30;99.90
65770;DHT22;52512;47.650;8.578;2022-09-29T15:52:49;13.30;99.90
65770;DHT22;52512;47.650;8.578;2022-09-29T15:55:17;13.20;99.90
65770;DHT22;52512;47.650;8.578;2022-09-29T15:57:47;13.20;99.90
65770;DHT22;52512;47.650;8.578;2022-09-29T16:03:04;13.20;99.90
65770;DHT22;52512;47.650;8.578;2022-09-29T16:05:35;13.20;99.90
65770;DHT22;52512;47.650;8.578;2022-09-29T16:08:15;13.20;99.90
65770;DHT22;52512;47.650;8.578;2022-09-29T16:10:50;13.20;99.90
65770;DHT22;52512;47.650;8.578;2022-09-29T16:13:30;13.10;99.90
65770;DHT22;52512;47.650;8.578;2022-09-29T16:16:03;13.10;99.90
65770;DHT22;52512;47.650;8.578;2022-09-29T16:18:42;13.10;99.90
65770;DHT22;52512;47.650;8.578;2022-09-29T16:21:17;13.10;99.90
65770;DHT22;52512;47.650;8.578;2022-09-29T16:23:46;13.10;99.90
65770;DHT22;52512;47.650;8.578;2022-09-29T16:26:19;13.10;99.90
65770;DHT22;52512;47.650;8.578;2022-09-29T16:31:36;13.10;99.90
65770;DHT22;52512;47.650;8.578;2022-09-29T16:34:26;13.00;99.90
65770;DHT22;52512;47.650;8.578;2022-09-29T16:36:52;13.00;99.90
65770;DHT22;52512;47.650;8.578;2022-09-29T16:39:21;13.00;99.90
65770;DHT22;52512;47.650;8.578;2022-09-29T16:41:58;13.00;99.90
65770;DHT22;52512;47.650;8.578;2022-09-29T16:44:33;13.00;99.90
65770;DHT22;52512;47.650;8.578;2022-09-29T16:49:35;12.90;99.90
65770;DHT22;52512;47.650;8.578;2022-09-29T16:52:14;12.90;99.90
65770;DHT22;52512;47.650;8.578;2022-09-29T16:54:46;12.90;99.90
65770;DHT22;52512;47.650;8.578;2022-09-29T16:57:26;12.90;99.90
65770;DHT22;52512;47.650;8.578;2022-09-29T16:59:59;12.90;99.90
65770;DHT22;52512;47.650;8.578;2022-09-29T17:02:26;12.90;99.90
65770;DHT22;52512;47.650;8.578;2022-09-29T17:04:53;12.90;99.90
65770;DHT22;52512;47.650;8.578;2022-09-29T17:07:25;12.80;99.90
65770;DHT22;52512;47.650;8.578;2022-09-29T17:09:58;12.80;99.90
65770;DHT22;52512;47.650;8.578;2022-09-29T17:12:28;12.80;99.90
65770;DHT22;52512;47.650;8.578;2022-09-29T17:14:55;12.80;99.90
65770;DHT22;52512;47.650;8.578;2022-09-29T17:17:27;12.80;99.90
65770;DHT22;52512;47.650;8.578;2022-09-29T17:19:54;12.80;99.90
65770;DHT22;52512;47.650;8.578;2022-09-29T17:22:34;12.80;99.90
65770;DHT22;52512;47.650;8.578;2022-09-29T17:25:02;12.70;99.90
65770;DHT22;52512;47.650;8.578;2022-09-29T17:27:28;12.70;99.90
65770;DHT22;52512;47.650;8.578;2022-09-29T17:30:18;12.70;99.90
65770;DHT22;52512;47.650;8.578;2022-09-29T17:32:46;12.70;99.90
65770;DHT22;52512;47.650;8.578;2022-09-29T17:35:21;12.60;99.90
65770;DHT22;52512;47.650;8.578;2022-09-29T17:37:47;12.60;99.90
65770;DHT22;52512;47.650;8.578;2022-09-29T17:42:49;12.60;99.90
65770;DHT22;52512;47.650;8.578;2022-09-29T17:45:16;12.60;99.90
65770;DHT22;52512;47.650;8.578;2022-09-29T17:47:43;12.50;99.90
65770;DHT22;52512;47.650;8.578;2022-09-29T17:50:29;12.50;99.90
65770;DHT22;52512;47.650;8.578;2022-09-29T17:52:57;12.50;99.90
65770;DHT22;52512;47.650;8.578;2022-09-29T17:55:25;12.40;99.90
65770;DHT22;52512;47.650;8.578;2022-09-29T17:57:51;12.40;99.90
65770;DHT22;52512;47.650;8.578;2022-09-29T18:00:24;12.40;99.90
65770;DHT22;52512;47.650;8.578;2022-09-29T18:02:51;12.40;99.90
65770;DHT22;52512;47.650;8.578;2022-09-29T18:05:17;12.40;99.90
65770;DHT22;52512;47.650;8.578;2022-09-29T18:07:49;12.30;99.90
65770;DHT22;52512;47.650;8.578;2022-09-29T18:10:28;12.40;99.90
65770;DHT22;52512;47.650;8.578;2022-09-29T18:12:54;12.30;99.90
65770;DHT22;52512;47.650;8.578;2022-09-29T18:15:20;12.30;99.90
65770;DHT22;52512;47.650;8.578;2022-09-29T18:17:46;12.30;99.90
65770;DHT22;52512;47.650;8.578;2022-09-29T18:20:19;12.30;99.90
65770;DHT22;52512;47.650;8.578;2022-09-29T18:22:47;12.30;99.90
65770;DHT22;52512;47.650;8.578;2022-09-29T18:25:15;12.30;99.90
65770;DHT22;52512;47.650;8.578;2022-09-29T18:27:46;12.30;99.90
65770;DHT22;52512;47.650;8.578;2022-09-29T18:30:24;12.20;99.90
65770;DHT22;52512;47.650;8.578;2022-09-29T18:32:55;12.20;99.90
65770;DHT22;52512;47.650;8.578;2022-09-29T18:35:28;12.10;99.90
65770;DHT22;52512;47.650;8.578;2022-09-29T18:37:55;12.10;99.90
65770;DHT22;52512;47.650;8.578;2022-09-29T18:40:22;12.10;99.90
65770;DHT22;52512;47.650;8.578;2022-09-29T18:42:49;12.10;99.90
65770;DHT22;52512;47.650;8.578;2022-09-29T18:45:18;12.10;99.90